sensor_id;sensor_type;location;lat;lon;timestamp;P1;durP1;ratioP1;P2;durP2;ratioP2
6809;SDS011;3443;48.812;9.112;2022-12-19T00:03:42;41.30;;;25.67;;
6809;SDS011;3443;48.812;9.112;2022-12-19T00:06:11;37.83;;;24.83;;
6809;SDS011;3443;48.812;9.112;2022-12-19T00:08:39;40.70;;;26.03;;
6809;SDS011;3443;48.812;9.112;2022-12-19T00:11:05;40.97;;;24.13;;
6809;SDS011;3443;48.812;9.112;2022-12-19T00:13:31;41.97;;;26.40;;
6809;SDS011;3443;48.812;9.112;2022-12-19T00:16:01;38.97;;;24.50;;
6809;SDS011;3443;48.812;9.112;2022-12-19T00:18:28;38.93;;;25.40;;
6809;SDS011;3443;48.812;9.112;2022-12-19T00:20:55;38.53;;;24.63;;
6809;SDS011;3443;48.812;9.112;2022-12-19T00:23:21;41.27;;;25.10;;
6809;SDS011;3443;48.812;9.112;2022-12-19T00:25:46;40.70;;;24.97;;
6809;SDS011;3443;48.812;9.112;2022-12-19T00:28:12;43.03;;;25.27;;
6809;SDS011;3443;48.812;9.112;2022-12-19T00:30:37;40.00;;;24.47;;
6809;SDS011;3443;48.812;9.112;2022-12-19T00:33:03;38.50;;;23.23;;
6809;SDS011;3443;48.812;9.112;2022-12-19T00:35:28;38.90;;;24.13;;
6809;SDS011;3443;48.812;9.112;2022-12-19T00:37:54;40.20;;;24.47;;
6809;SDS011;3443;48.812;9.112;2022-12-19T00:40:19;41.53;;;26.00;;
6809;SDS011;3443;48.812;9.112;2022-12-19T00:42:45;40.93;;;24.17;;
6809;SDS011;3443;48.812;9.112;2022-12-19T00:45:11;40.33;;;25.53;;
6809;SDS011;3443;48.812;9.112;2022-12-19T00:47:36;41.93;;;26.30;;
6809;SDS011;3443;48.812;9.112;2022-12-19T00:50:02;39.80;;;24.37;;
6809;SDS011;3443;48.812;9.112;2022-12-19T00:52:28;41.47;;;23.90;;
6809;SDS011;3443;48.812;9.112;2022-12-19T00:54:53;40.13;;;25.17;;
6809;SDS011;3443;48.812;9.112;2022-12-19T00:57:19;41.27;;;25.50;;
6809;SDS011;3443;48.812;9.112;2022-12-19T00:59:45;42.70;;;25.80;;
6809;SDS011;3443;48.812;9.112;2022-12-19T01:02:10;38.40;;;24.37;;
6809;SDS011;3443;48.812;9.112;2022-12-19T01:04:36;42.73;;;25.73;;
6809;SDS011;3443;48.812;9.112;2022-12-19T01:07:01;40.67;;;25.13;;
6809;SDS011;3443;48.812;9.112;2022-12-19T01:09:29;44.17;;;26.90;;
6809;SDS011;3443;48.812;9.112;2022-12-19T01:11:56;43.90;;;26.27;;
6809;SDS011;3443;48.812;9.112;2022-12-19T01:14:40;37.83;;;25.00;;
6809;SDS011;3443;48.812;9.112;2022-12-19T01:17:05;41.97;;;26.63;;
6809;SDS011;3443;48.812;9.112;2022-12-19T01:19:31;41.83;;;25.50;;
6809;SDS011;3443;48.812;9.112;2022-12-19T01:21:57;42.03;;;26.20;;
6809;SDS011;3443;48.812;9.112;2022-12-19T01:24:22;40.27;;;26.07;;
6809;SDS011;3443;48.812;9.112;2022-12-19T01:26:48;45.70;;;26.47;;
6809;SDS011;3443;48.812;9.112;2022-12-19T01:29:13;44.00;;;26.47;;
6809;SDS011;3443;48.812;9.112;2022-12-19T01:31:39;44.00;;;26.40;;
6809;SDS011;3443;48.812;9.112;2022-12-19T01:34:04;42.37;;;27.10;;
6809;SDS011;3443;48.812;9.112;2022-12-19T01:36:30;42.73;;;25.40;;
6809;SDS011;3443;48.812;9.112;2022-12-19T01:38:56;42.10;;;25.83;;
6809;SDS011;3443;48.812;9.112;2022-12-19T01:41:22;41.60;;;24.57;;
6809;SDS011;3443;48.812;9.112;2022-12-19T01:44:02;40.77;;;25.63;;
6809;SDS011;3443;48.812;9.112;2022-12-19T01:46:32;41.27;;;26.53;;
6809;SDS011;3443;48.812;9.112;2022-12-19T01:49:04;40.93;;;25.43;;
6809;SDS011;3443;48.812;9.112;2022-12-19T01:51:36;44.67;;;26.60;;
6809;SDS011;3443;48.812;9.112;2022-12-19T01:54:09;43.43;;;25.77;;
6809;SDS011;3443;48.812;9.112;2022-12-19T01:56:43;44.40;;;27.67;;
6809;SDS011;3443;48.812;9.112;2022-12-19T01:59:13;41.73;;;25.53;;
6809;SDS011;3443;48.812;9.112;2022-12-19T02:01:43;44.70;;;26.20;;
6809;SDS011;3443;48.812;9.112;2022-12-19T02:04:09;42.07;;;25.77;;
6809;SDS011;3443;48.812;9.112;2022-12-19T02:06:37;42.90;;;27.00;;
6809;SDS011;3443;48.812;9.112;2022-12-19T02:09:05;42.50;;;26.23;;
6809;SDS011;3443;48.812;9.112;2022-12-19T02:11:30;44.23;;;26.27;;
6809;SDS011;3443;48.812;9.112;2022-12-19T02:13:56;41.93;;;26.03;;
6809;SDS011;3443;48.812;9.112;2022-12-19T02:17:07;43.53;;;26.80;;
6809;SDS011;3443;48.812;9.112;2022-12-19T02:22:27;42.30;;;26.27;;
6809;SDS011;3443;48.812;9.112;2022-12-19T02:27:46;41.87;;;26.10;;
6809;SDS011;3443;48.812;9.112;2022-12-19T02:30:55;40.70;;;25.53;;
6809;SDS011;3443;48.812;9.112;2022-12-19T02:33:54;43.70;;;26.87;;
6809;SDS011;3443;48.812;9.112;2022-12-19T02:39:03;41.90;;;25.87;;
6809;SDS011;3443;48.812;9.112;2022-12-19T02:41:50;41.67;;;26.53;;
6809;SDS011;3443;48.812;9.112;2022-12-19T02:44:34;40.07;;;25.00;;
6809;SDS011;3443;48.812;9.112;2022-12-19T02:47:04;42.77;;;26.83;;
6809;SDS011;3443;48.812;9.112;2022-12-19T02:49:32;42.33;;;24.23;;
6809;SDS011;3443;48.812;9.112;2022-12-19T02:52:09;40.77;;;24.67;;
6809;SDS011;3443;48.812;9.112;2022-12-19T02:54:36;40.53;;;23.90;;
6809;SDS011;3443;48.812;9.112;2022-12-19T03:00:09;42.10;;;24.93;;
6809;SDS011;3443;48.812;9.112;2022-12-19T03:05:13;38.40;;;24.33;;
6809;SDS011;3443;48.812;9.112;2022-12-19T03:07:45;38.90;;;23.30;;
6809;SDS011;3443;48.812;9.112;2022-12-19T03:12:55;40.00;;;24.70;;
6809;SDS011;3443;48.812;9.112;2022-12-19T03:15:26;43.13;;;26.03;;
6809;SDS011;3443;48.812;9.112;2022-12-19T03:17:56;42.30;;;25.60;;
6809;SDS011;3443;48.812;9.112;2022-12-19T03:23:09;42.40;;;26.17;;
6809;SDS011;3443;48.812;9.112;2022-12-19T03:25:35;39.57;;;25.13;;
6809;SDS011;3443;48.812;9.112;2022-12-19T03:28:03;41.23;;;25.17;;
6809;SDS011;3443;48.812;9.112;2022-12-19T03:30:34;40.27;;;25.10;;
6809;SDS011;3443;48.812;9.112;2022-12-19T03:33:03;37.80;;;22.47;;
6809;SDS011;3443;48.812;9.112;2022-12-19T03:35:29;37.97;;;23.23;;
6809;SDS011;3443;48.812;9.112;2022-12-19T03:37:56;42.53;;;24.00;;
6809;SDS011;3443;48.812;9.112;2022-12-19T03:40:25;40.00;;;24.87;;
6809;SDS011;3443;48.812;9.112;2022-12-19T03:42:52;37.77;;;23.03;;
6809;SDS011;3443;48.812;9.112;2022-12-19T03:48:32;39.43;;;23.50;;
6809;SDS011;3443;48.812;9.112;2022-12-19T03:51:21;42.30;;;24.87;;
6809;SDS011;3443;48.812;9.112;2022-12-19T03:54:05;37.80;;;24.03;;
6809;SDS011;3443;48.812;9.112;2022-12-19T03:59:20;36.90;;;22.13;;
6809;SDS011;3443;48.812;9.112;2022-12-19T04:01:56;34.70;;;22.17;;
6809;SDS011;3443;48.812;9.112;2022-12-19T04:04:23;38.50;;;21.37;;
6809;SDS011;3443;48.812;9.112;2022-12-19T04:06:50;38.13;;;21.90;;
6809;SDS011;3443;48.812;9.112;2022-12-19T04:09:18;39.00;;;20.43;;
6809;SDS011;3443;48.812;9.112;2022-12-19T04:11:48;36.33;;;20.23;;
6809;SDS011;3443;48.812;9.112;2022-12-19T04:14:22;38.30;;;22.63;;
6809;SDS011;3443;48.812;9.112;2022-12-19T04:17:13;39.07;;;21.80;;
6809;SDS011;3443;48.812;9.112;2022-12-19T04:22:31;40.00;;;22.60;;
6809;SDS011;3443;48.812;9.112;2022-12-19T04:24:58;37.73;;;23.30;;
6809;SDS011;3443;48.812;9.112;2022-12-19T04:27:27;36.60;;;21.73;;
6809;SDS011;3443;48.812;9.112;2022-12-19T04:29:54;40.17;;;22.80;;
6809;SDS011;3443;48.812;9.112;2022-12-19T04:32:23;41.13;;;23.57;;
6809;SDS011;3443;48.812;9.112;2022-12-19T04:34:49;38.00;;;22.90;;
6809;SDS011;3443;48.812;9.112;2022-12-19T04:37:15;36.57;;;22.80;;
6809;SDS011;3443;48.812;9.112;2022-12-19T04:39:40;36.60;;;21.30;;
6809;SDS011;3443;48.812;9.112;2022-12-19T04:42:06;37.37;;;23.17;;
6809;SDS011;3443;48.812;9.112;2022-12-19T04:44:32;35.27;;;20.67;;
6809;SDS011;3443;48.812;9.112;2022-12-19T04:46:57;33.20;;;18.57;;
6809;SDS011;3443;48.812;9.112;2022-12-19T04:49:23;34.20;;;20.27;;
6809;SDS011;3443;48.812;9.112;2022-12-19T04:51:48;30.63;;;19.00;;
6809;SDS011;3443;48.812;9.112;2022-12-19T04:54:14;34.07;;;18.70;;
6809;SDS011;3443;48.812;9.112;2022-12-19T04:56:39;30.43;;;17.30;;
6809;SDS011;3443;48.812;9.112;2022-12-19T04:59:05;26.80;;;16.57;;
6809;SDS011;3443;48.812;9.112;2022-12-19T05:01:30;32.37;;;17.70;;
6809;SDS011;3443;48.812;9.112;2022-12-19T05:03:56;29.90;;;16.60;;
6809;SDS011;3443;48.812;9.112;2022-12-19T05:06:22;32.30;;;17.40;;
6809;SDS011;3443;48.812;9.112;2022-12-19T05:08:47;31.17;;;17.80;;
6809;SDS011;3443;48.812;9.112;2022-12-19T05:11:14;29.67;;;16.90;;
6809;SDS011;3443;48.812;9.112;2022-12-19T05:13:40;32.53;;;17.47;;
6809;SDS011;3443;48.812;9.112;2022-12-19T05:16:07;30.60;;;17.37;;
6809;SDS011;3443;48.812;9.112;2022-12-19T05:18:34;28.87;;;16.73;;
6809;SDS011;3443;48.812;9.112;2022-12-19T05:21:01;27.47;;;16.30;;
6809;SDS011;3443;48.812;9.112;2022-12-19T05:26:31;31.03;;;15.70;;
6809;SDS011;3443;48.812;9.112;2022-12-19T05:28:57;29.70;;;16.33;;
6809;SDS011;3443;48.812;9.112;2022-12-19T05:31:22;31.87;;;16.37;;
6809;SDS011;3443;48.812;9.112;2022-12-19T05:33:48;28.37;;;16.03;;
6809;SDS011;3443;48.812;9.112;2022-12-19T05:36:14;31.20;;;16.60;;
6809;SDS011;3443;48.812;9.112;2022-12-19T05:38:42;31.20;;;16.17;;
6809;SDS011;3443;48.812;9.112;2022-12-19T05:41:08;31.23;;;16.50;;
6809;SDS011;3443;48.812;9.112;2022-12-19T05:43:35;33.27;;;16.57;;
6809;SDS011;3443;48.812;9.112;2022-12-19T05:46:02;29.93;;;16.27;;
6809;SDS011;3443;48.812;9.112;2022-12-19T05:48:28;33.37;;;18.37;;
6809;SDS011;3443;48.812;9.112;2022-12-19T05:50:54;32.50;;;17.10;;
6809;SDS011;3443;48.812;9.112;2022-12-19T05:53:19;33.20;;;16.37;;
6809;SDS011;3443;48.812;9.112;2022-12-19T05:55:45;32.00;;;16.73;;
6809;SDS011;3443;48.812;9.112;2022-12-19T05:58:11;28.63;;;17.40;;
6809;SDS011;3443;48.812;9.112;2022-12-19T06:00:36;29.17;;;16.70;;
6809;SDS011;3443;48.812;9.112;2022-12-19T06:03:02;30.33;;;15.87;;
6809;SDS011;3443;48.812;9.112;2022-12-19T06:05:27;28.40;;;15.73;;
6809;SDS011;3443;48.812;9.112;2022-12-19T06:07:53;32.83;;;16.07;;
6809;SDS011;3443;48.812;9.112;2022-12-19T06:10:19;29.17;;;15.17;;
6809;SDS011;3443;48.812;9.112;2022-12-19T06:12:47;38.67;;;17.67;;
6809;SDS011;3443;48.812;9.112;2022-12-19T06:15:12;43.30;;;19.37;;
6809;SDS011;3443;48.812;9.112;2022-12-19T06:17:38;56.60;;;24.17;;
6809;SDS011;3443;48.812;9.112;2022-12-19T06:20:03;39.60;;;18.93;;
6809;SDS011;3443;48.812;9.112;2022-12-19T06:22:30;31.87;;;15.70;;
6809;SDS011;3443;48.812;9.112;2022-12-19T06:24:56;30.37;;;14.93;;
6809;SDS011;3443;48.812;9.112;2022-12-19T06:27:21;24.80;;;13.63;;
6809;SDS011;3443;48.812;9.112;2022-12-19T06:29:47;61.00;;;22.00;;
6809;SDS011;3443;48.812;9.112;2022-12-19T06:32:12;43.27;;;19.10;;
6809;SDS011;3443;48.812;9.112;2022-12-19T06:34:38;33.50;;;16.23;;
6809;SDS011;3443;48.812;9.112;2022-12-19T06:37:03;24.87;;;14.50;;
6809;SDS011;3443;48.812;9.112;2022-12-19T06:39:29;24.33;;;14.23;;
6809;SDS011;3443;48.812;9.112;2022-12-19T06:41:55;27.87;;;15.07;;
6809;SDS011;3443;48.812;9.112;2022-12-19T06:44:39;25.17;;;14.87;;
6809;SDS011;3443;48.812;9.112;2022-12-19T06:47:04;25.77;;;13.67;;
6809;SDS011;3443;48.812;9.112;2022-12-19T06:49:30;28.37;;;14.90;;
6809;SDS011;3443;48.812;9.112;2022-12-19T06:51:55;21.87;;;13.30;;
6809;SDS011;3443;48.812;9.112;2022-12-19T06:54:21;23.97;;;14.07;;
6809;SDS011;3443;48.812;9.112;2022-12-19T06:56:46;27.00;;;14.30;;
6809;SDS011;3443;48.812;9.112;2022-12-19T06:59:13;26.00;;;14.60;;
6809;SDS011;3443;48.812;9.112;2022-12-19T07:01:54;28.47;;;14.77;;
6809;SDS011;3443;48.812;9.112;2022-12-19T07:04:32;27.07;;;14.87;;
6809;SDS011;3443;48.812;9.112;2022-12-19T07:07:01;25.67;;;14.80;;
6809;SDS011;3443;48.812;9.112;2022-12-19T07:09:26;24.60;;;14.47;;
6809;SDS011;3443;48.812;9.112;2022-12-19T07:11:53;26.47;;;14.27;;
6809;SDS011;3443;48.812;9.112;2022-12-19T07:14:18;24.47;;;14.17;;
6809;SDS011;3443;48.812;9.112;2022-12-19T07:16:44;24.87;;;13.53;;
6809;SDS011;3443;48.812;9.112;2022-12-19T07:19:11;26.30;;;13.63;;
6809;SDS011;3443;48.812;9.112;2022-12-19T07:21:38;23.47;;;13.20;;
6809;SDS011;3443;48.812;9.112;2022-12-19T07:24:04;21.30;;;12.63;;
6809;SDS011;3443;48.812;9.112;2022-12-19T07:26:31;27.80;;;13.27;;
6809;SDS011;3443;48.812;9.112;2022-12-19T07:28:57;25.63;;;13.57;;
6809;SDS011;3443;48.812;9.112;2022-12-19T07:31:23;23.50;;;12.57;;
6809;SDS011;3443;48.812;9.112;2022-12-19T07:33:48;23.47;;;12.80;;
6809;SDS011;3443;48.812;9.112;2022-12-19T07:36:14;21.63;;;12.07;;
6809;SDS011;3443;48.812;9.112;2022-12-19T07:38:39;22.93;;;12.77;;
6809;SDS011;3443;48.812;9.112;2022-12-19T07:41:05;22.40;;;12.33;;
6809;SDS011;3443;48.812;9.112;2022-12-19T07:43:30;22.40;;;11.87;;
6809;SDS011;3443;48.812;9.112;2022-12-19T07:45:56;20.47;;;11.50;;
6809;SDS011;3443;48.812;9.112;2022-12-19T07:48:22;24.00;;;12.77;;
6809;SDS011;3443;48.812;9.112;2022-12-19T07:50:48;18.83;;;11.17;;
6809;SDS011;3443;48.812;9.112;2022-12-19T07:53:14;19.70;;;11.17;;
6809;SDS011;3443;48.812;9.112;2022-12-19T07:55:40;21.77;;;11.63;;
6809;SDS011;3443;48.812;9.112;2022-12-19T07:58:05;20.73;;;11.13;;
6809;SDS011;3443;48.812;9.112;2022-12-19T08:00:34;23.60;;;12.00;;
6809;SDS011;3443;48.812;9.112;2022-12-19T08:03:00;21.47;;;11.33;;
6809;SDS011;3443;48.812;9.112;2022-12-19T08:05:25;20.90;;;10.73;;
6809;SDS011;3443;48.812;9.112;2022-12-19T08:07:51;18.07;;;11.30;;
6809;SDS011;3443;48.812;9.112;2022-12-19T08:10:16;19.73;;;11.23;;
6809;SDS011;3443;48.812;9.112;2022-12-19T08:12:43;21.10;;;11.93;;
6809;SDS011;3443;48.812;9.112;2022-12-19T08:15:09;23.47;;;11.23;;
6809;SDS011;3443;48.812;9.112;2022-12-19T08:17:35;19.90;;;11.30;;
6809;SDS011;3443;48.812;9.112;2022-12-19T08:20:00;18.20;;;11.10;;
6809;SDS011;3443;48.812;9.112;2022-12-19T08:22:27;19.70;;;11.90;;
6809;SDS011;3443;48.812;9.112;2022-12-19T08:24:53;26.20;;;13.40;;
6809;SDS011;3443;48.812;9.112;2022-12-19T08:27:19;24.97;;;13.50;;
6809;SDS011;3443;48.812;9.112;2022-12-19T08:29:45;25.47;;;13.63;;
6809;SDS011;3443;48.812;9.112;2022-12-19T08:32:11;21.07;;;12.30;;
6809;SDS011;3443;48.812;9.112;2022-12-19T08:34:39;24.13;;;11.00;;
6809;SDS011;3443;48.812;9.112;2022-12-19T08:37:04;17.90;;;10.93;;
6809;SDS011;3443;48.812;9.112;2022-12-19T08:39:30;18.33;;;11.53;;
6809;SDS011;3443;48.812;9.112;2022-12-19T08:41:55;17.97;;;10.30;;
6809;SDS011;3443;48.812;9.112;2022-12-19T08:44:21;23.80;;;11.77;;
6809;SDS011;3443;48.812;9.112;2022-12-19T08:46:47;20.73;;;12.00;;
6809;SDS011;3443;48.812;9.112;2022-12-19T08:49:12;21.37;;;11.43;;
6809;SDS011;3443;48.812;9.112;2022-12-19T08:51:39;19.53;;;11.10;;
6809;SDS011;3443;48.812;9.112;2022-12-19T08:54:04;20.80;;;11.17;;
6809;SDS011;3443;48.812;9.112;2022-12-19T08:56:30;21.77;;;11.87;;
6809;SDS011;3443;48.812;9.112;2022-12-19T08:58:55;19.23;;;11.17;;
6809;SDS011;3443;48.812;9.112;2022-12-19T09:01:21;20.37;;;11.73;;
6809;SDS011;3443;48.812;9.112;2022-12-19T09:03:48;20.93;;;11.10;;
6809;SDS011;3443;48.812;9.112;2022-12-19T09:06:14;19.50;;;11.00;;
6809;SDS011;3443;48.812;9.112;2022-12-19T09:08:41;22.33;;;12.23;;
6809;SDS011;3443;48.812;9.112;2022-12-19T09:11:08;21.57;;;11.30;;
6809;SDS011;3443;48.812;9.112;2022-12-19T09:13:39;20.13;;;11.70;;
6809;SDS011;3443;48.812;9.112;2022-12-19T09:18:43;22.23;;;12.70;;
6809;SDS011;3443;48.812;9.112;2022-12-19T09:21:10;23.73;;;11.93;;
6809;SDS011;3443;48.812;9.112;2022-12-19T09:23:37;23.63;;;12.27;;
6809;SDS011;3443;48.812;9.112;2022-12-19T09:26:07;22.97;;;12.00;;
6809;SDS011;3443;48.812;9.112;2022-12-19T09:28:34;22.33;;;12.60;;
6809;SDS011;3443;48.812;9.112;2022-12-19T09:31:02;22.93;;;12.33;;
6809;SDS011;3443;48.812;9.112;2022-12-19T09:33:30;22.00;;;11.50;;
6809;SDS011;3443;48.812;9.112;2022-12-19T09:35:56;19.90;;;11.57;;
6809;SDS011;3443;48.812;9.112;2022-12-19T09:38:22;21.73;;;11.73;;
6809;SDS011;3443;48.812;9.112;2022-12-19T09:46:48;19.93;;;11.50;;
6809;SDS011;3443;48.812;9.112;2022-12-19T09:49:25;21.97;;;12.47;;
6809;SDS011;3443;48.812;9.112;2022-12-19T09:52:16;20.87;;;12.53;;
6809;SDS011;3443;48.812;9.112;2022-12-19T09:57:47;21.03;;;12.30;;
6809;SDS011;3443;48.812;9.112;2022-12-19T10:00:44;20.67;;;13.03;;
6809;SDS011;3443;48.812;9.112;2022-12-19T10:03:27;22.67;;;13.20;;
6809;SDS011;3443;48.812;9.112;2022-12-19T10:08:38;18.00;;;11.83;;
6809;SDS011;3443;48.812;9.112;2022-12-19T10:18:52;16.70;;;11.03;;
6809;SDS011;3443;48.812;9.112;2022-12-19T10:26:58;18.35;;;10.18;;
6809;SDS011;3443;48.812;9.112;2022-12-19T10:33:01;81.97;;;35.53;;
6809;SDS011;3443;48.812;9.112;2022-12-19T10:35:10;184.47;;;75.77;;
6809;SDS011;3443;48.812;9.112;2022-12-19T10:37:46;60.20;;;29.92;;
6809;SDS011;3443;48.812;9.112;2022-12-19T10:40:21;23.48;;;13.90;;
6809;SDS011;3443;48.812;9.112;2022-12-19T10:45:44;25.70;;;14.65;;
6809;SDS011;3443;48.812;9.112;2022-12-19T10:48:14;15.73;;;10.02;;
6809;SDS011;3443;48.812;9.112;2022-12-19T10:50:46;12.55;;;9.13;;
6809;SDS011;3443;48.812;9.112;2022-12-19T10:53:12;37.55;;;19.70;;
6809;SDS011;3443;48.812;9.112;2022-12-19T10:55:45;22.88;;;12.88;;
6809;SDS011;3443;48.812;9.112;2022-12-19T10:58:17;23.27;;;14.32;;
6809;SDS011;3443;48.812;9.112;2022-12-19T11:00:53;16.83;;;10.45;;
6809;SDS011;3443;48.812;9.112;2022-12-19T11:03:21;30.15;;;17.10;;
6809;SDS011;3443;48.812;9.112;2022-12-19T11:05:51;18.50;;;11.73;;
6809;SDS011;3443;48.812;9.112;2022-12-19T11:08:28;22.02;;;12.10;;
6809;SDS011;3443;48.812;9.112;2022-12-19T11:15:59;28.85;;;16.38;;
6809;SDS011;3443;48.812;9.112;2022-12-19T11:18:33;28.77;;;14.55;;
6809;SDS011;3443;48.812;9.112;2022-12-19T11:21:06;19.20;;;10.65;;
6809;SDS011;3443;48.812;9.112;2022-12-19T11:26:31;19.95;;;10.82;;
6809;SDS011;3443;48.812;9.112;2022-12-19T11:29:15;16.40;;;10.95;;
6809;SDS011;3443;48.812;9.112;2022-12-19T11:31:52;22.40;;;11.32;;
6809;SDS011;3443;48.812;9.112;2022-12-19T11:34:23;29.17;;;16.17;;
6809;SDS011;3443;48.812;9.112;2022-12-19T11:39:29;19.75;;;11.85;;
6809;SDS011;3443;48.812;9.112;2022-12-19T11:42:14;17.67;;;11.20;;
6809;SDS011;3443;48.812;9.112;2022-12-19T11:45:12;20.00;;;12.00;;
6809;SDS011;3443;48.812;9.112;2022-12-19T11:50:26;18.70;;;11.18;;
6809;SDS011;3443;48.812;9.112;2022-12-19T11:55:44;21.05;;;11.63;;
6809;SDS011;3443;48.812;9.112;2022-12-19T11:58:16;13.88;;;9.40;;
6809;SDS011;3443;48.812;9.112;2022-12-19T12:00:47;19.48;;;10.50;;
6809;SDS011;3443;48.812;9.112;2022-12-19T12:03:43;15.80;;;10.18;;
6809;SDS011;3443;48.812;9.112;2022-12-19T12:06:33;16.40;;;9.73;;
6809;SDS011;3443;48.812;9.112;2022-12-19T12:09:13;16.25;;;9.88;;
6809;SDS011;3443;48.812;9.112;2022-12-19T12:17:22;17.23;;;9.88;;
6809;SDS011;3443;48.812;9.112;2022-12-19T12:31:52;17.50;;;10.70;;
6809;SDS011;3443;48.812;9.112;2022-12-19T12:42:40;14.73;;;10.02;;
6809;SDS011;3443;48.812;9.112;2022-12-19T12:45:29;13.75;;;9.50;;
6809;SDS011;3443;48.812;9.112;2022-12-19T12:48:01;18.33;;;9.73;;
6809;SDS011;3443;48.812;9.112;2022-12-19T12:50:29;10.75;;;8.05;;
6809;SDS011;3443;48.812;9.112;2022-12-19T12:52:57;11.18;;;7.70;;
6809;SDS011;3443;48.812;9.112;2022-12-19T12:55:30;15.77;;;8.77;;
6809;SDS011;3443;48.812;9.112;2022-12-19T12:58:01;11.98;;;7.53;;
6809;SDS011;3443;48.812;9.112;2022-12-19T13:00:27;10.07;;;7.05;;
6809;SDS011;3443;48.812;9.112;2022-12-19T13:02:55;8.70;;;7.05;;
6809;SDS011;3443;48.812;9.112;2022-12-19T13:07:56;10.20;;;6.90;;
6809;SDS011;3443;48.812;9.112;2022-12-19T13:10:31;9.18;;;7.20;;
6809;SDS011;3443;48.812;9.112;2022-12-19T13:13:06;10.82;;;8.30;;
6809;SDS011;3443;48.812;9.112;2022-12-19T13:20:38;14.60;;;9.75;;
6809;SDS011;3443;48.812;9.112;2022-12-19T13:23:22;11.85;;;7.25;;
6809;SDS011;3443;48.812;9.112;2022-12-19T13:26:02;6.38;;;4.82;;
6809;SDS011;3443;48.812;9.112;2022-12-19T13:33:43;9.52;;;7.70;;
6809;SDS011;3443;48.812;9.112;2022-12-19T13:36:44;7.72;;;5.93;;
6809;SDS011;3443;48.812;9.112;2022-12-19T13:42:23;3.80;;;3.05;;
6809;SDS011;3443;48.812;9.112;2022-12-19T13:47:55;7.78;;;4.95;;
6809;SDS011;3443;48.812;9.112;2022-12-19T13:53:08;9.00;;;4.43;;
6809;SDS011;3443;48.812;9.112;2022-12-19T13:55:41;9.25;;;5.90;;
6809;SDS011;3443;48.812;9.112;2022-12-19T13:58:13;12.82;;;6.25;;
6809;SDS011;3443;48.812;9.112;2022-12-19T14:00:49;9.02;;;5.85;;
6809;SDS011;3443;48.812;9.112;2022-12-19T14:03:17;11.48;;;7.15;;
6809;SDS011;3443;48.812;9.112;2022-12-19T14:05:49;8.10;;;6.05;;
6809;SDS011;3443;48.812;9.112;2022-12-19T14:08:17;9.00;;;6.57;;
6809;SDS011;3443;48.812;9.112;2022-12-19T14:10:46;9.00;;;5.40;;
6809;SDS011;3443;48.812;9.112;2022-12-19T14:13:15;8.63;;;5.22;;
6809;SDS011;3443;48.812;9.112;2022-12-19T14:16:03;6.25;;;4.40;;
6809;SDS011;3443;48.812;9.112;2022-12-19T14:18:30;6.53;;;4.50;;
6809;SDS011;3443;48.812;9.112;2022-12-19T14:26:44;9.27;;;5.53;;
6809;SDS011;3443;48.812;9.112;2022-12-19T14:29:13;6.60;;;5.10;;
6809;SDS011;3443;48.812;9.112;2022-12-19T14:31:45;9.82;;;5.78;;
6809;SDS011;3443;48.812;9.112;2022-12-19T14:34:14;10.25;;;7.22;;
6809;SDS011;3443;48.812;9.112;2022-12-19T14:36:52;7.07;;;5.18;;
6809;SDS011;3443;48.812;9.112;2022-12-19T14:39:20;6.13;;;4.57;;
6809;SDS011;3443;48.812;9.112;2022-12-19T14:41:49;5.47;;;4.90;;
6809;SDS011;3443;48.812;9.112;2022-12-19T14:44:46;6.82;;;5.32;;
6809;SDS011;3443;48.812;9.112;2022-12-19T14:47:24;5.03;;;4.38;;
6809;SDS011;3443;48.812;9.112;2022-12-19T14:49:57;6.25;;;5.13;;
6809;SDS011;3443;48.812;9.112;2022-12-19T14:52:41;7.28;;;5.00;;
6809;SDS011;3443;48.812;9.112;2022-12-19T14:57:44;8.55;;;6.10;;
6809;SDS011;3443;48.812;9.112;2022-12-19T15:00:20;8.20;;;6.00;;
6809;SDS011;3443;48.812;9.112;2022-12-19T15:02:48;9.45;;;6.45;;
6809;SDS011;3443;48.812;9.112;2022-12-19T15:05:14;7.63;;;5.22;;
6809;SDS011;3443;48.812;9.112;2022-12-19T15:07:41;5.63;;;4.22;;
6809;SDS011;3443;48.812;9.112;2022-12-19T15:10:23;6.32;;;4.20;;
6809;SDS011;3443;48.812;9.112;2022-12-19T15:15:40;5.63;;;4.90;;
6809;SDS011;3443;48.812;9.112;2022-12-19T15:20:53;7.57;;;5.38;;
6809;SDS011;3443;48.812;9.112;2022-12-19T15:23:20;5.90;;;5.28;;
6809;SDS011;3443;48.812;9.112;2022-12-19T15:25:46;5.68;;;4.75;;
6809;SDS011;3443;48.812;9.112;2022-12-19T15:28:14;6.03;;;4.82;;
6809;SDS011;3443;48.812;9.112;2022-12-19T15:30:45;6.60;;;5.15;;
6809;SDS011;3443;48.812;9.112;2022-12-19T15:33:15;4.90;;;3.40;;
6809;SDS011;3443;48.812;9.112;2022-12-19T15:35:43;5.68;;;4.38;;
6809;SDS011;3443;48.812;9.112;2022-12-19T15:38:09;5.45;;;4.25;;
6809;SDS011;3443;48.812;9.112;2022-12-19T15:40:35;5.78;;;3.92;;
6809;SDS011;3443;48.812;9.112;2022-12-19T15:43:08;4.07;;;3.78;;
6809;SDS011;3443;48.812;9.112;2022-12-19T15:45:44;3.92;;;3.45;;
6809;SDS011;3443;48.812;9.112;2022-12-19T15:48:14;3.60;;;3.30;;
6809;SDS011;3443;48.812;9.112;2022-12-19T15:50:41;5.78;;;4.15;;
6809;SDS011;3443;48.812;9.112;2022-12-19T15:53:21;3.92;;;3.60;;
6809;SDS011;3443;48.812;9.112;2022-12-19T15:55:53;3.38;;;3.08;;
6809;SDS011;3443;48.812;9.112;2022-12-19T15:58:21;4.95;;;3.92;;
6809;SDS011;3443;48.812;9.112;2022-12-19T16:00:51;5.57;;;4.18;;
6809;SDS011;3443;48.812;9.112;2022-12-19T16:03:19;8.48;;;4.68;;
6809;SDS011;3443;48.812;9.112;2022-12-19T16:05:45;9.30;;;7.55;;
6809;SDS011;3443;48.812;9.112;2022-12-19T16:08:12;9.00;;;6.78;;
6809;SDS011;3443;48.812;9.112;2022-12-19T16:10:44;15.75;;;8.35;;
6809;SDS011;3443;48.812;9.112;2022-12-19T16:13:17;20.98;;;13.05;;
6809;SDS011;3443;48.812;9.112;2022-12-19T16:15:52;33.00;;;20.38;;
6809;SDS011;3443;48.812;9.112;2022-12-19T16:18:19;20.30;;;13.85;;
6809;SDS011;3443;48.812;9.112;2022-12-19T16:20:45;15.43;;;9.20;;
6809;SDS011;3443;48.812;9.112;2022-12-19T16:23:12;9.98;;;7.22;;
6809;SDS011;3443;48.812;9.112;2022-12-19T16:25:48;7.68;;;5.22;;
6809;SDS011;3443;48.812;9.112;2022-12-19T16:28:17;5.93;;;5.15;;
6809;SDS011;3443;48.812;9.112;2022-12-19T16:30:54;6.07;;;4.78;;
6809;SDS011;3443;48.812;9.112;2022-12-19T16:33:22;6.00;;;5.40;;
6809;SDS011;3443;48.812;9.112;2022-12-19T16:35:50;6.53;;;4.93;;
6809;SDS011;3443;48.812;9.112;2022-12-19T16:38:16;8.07;;;5.88;;
6809;SDS011;3443;48.812;9.112;2022-12-19T16:40:42;8.43;;;6.03;;
6809;SDS011;3443;48.812;9.112;2022-12-19T16:45:40;10.48;;;6.85;;
6809;SDS011;3443;48.812;9.112;2022-12-19T16:48:18;9.85;;;6.75;;
6809;SDS011;3443;48.812;9.112;2022-12-19T16:50:45;10.73;;;6.78;;
6809;SDS011;3443;48.812;9.112;2022-12-19T16:53:11;10.15;;;7.05;;
6809;SDS011;3443;48.812;9.112;2022-12-19T16:55:37;9.52;;;6.38;;
6809;SDS011;3443;48.812;9.112;2022-12-19T16:58:03;8.98;;;6.60;;
6809;SDS011;3443;48.812;9.112;2022-12-19T17:00:29;8.63;;;7.22;;
6809;SDS011;3443;48.812;9.112;2022-12-19T17:05:55;10.45;;;8.15;;
6809;SDS011;3443;48.812;9.112;2022-12-19T17:08:21;9.35;;;7.18;;
6809;SDS011;3443;48.812;9.112;2022-12-19T17:10:47;6.15;;;5.30;;
6809;SDS011;3443;48.812;9.112;2022-12-19T17:13:13;6.47;;;5.10;;
6809;SDS011;3443;48.812;9.112;2022-12-19T17:15:41;8.40;;;6.10;;
6809;SDS011;3443;48.812;9.112;2022-12-19T17:18:20;11.55;;;8.43;;
6809;SDS011;3443;48.812;9.112;2022-12-19T17:20:52;13.80;;;7.70;;
6809;SDS011;3443;48.812;9.112;2022-12-19T17:23:21;13.07;;;8.03;;
6809;SDS011;3443;48.812;9.112;2022-12-19T17:25:48;12.45;;;8.43;;
6809;SDS011;3443;48.812;9.112;2022-12-19T17:28:14;14.13;;;7.82;;
6809;SDS011;3443;48.812;9.112;2022-12-19T17:30:42;10.07;;;7.57;;
6809;SDS011;3443;48.812;9.112;2022-12-19T17:33:14;11.73;;;7.93;;
6809;SDS011;3443;48.812;9.112;2022-12-19T17:35:41;10.77;;;8.07;;
6809;SDS011;3443;48.812;9.112;2022-12-19T17:38:09;8.48;;;6.82;;
6809;SDS011;3443;48.812;9.112;2022-12-19T17:40:38;12.02;;;7.10;;